Time;durP1;ratioP1;P1;durP2;ratioP2;P2;SDS_P1;SDS_P2;PMS_P1;PMS_P2;Temp;Humidity;BMP_temperature;BMP_pressure;BME280_temperature;BME280_humidity;BME280_pressure;Samples;Min_cycle;Max_cycle;Signal;HPM_P1;HPM_P2
2022/01/03 16:39:44;;;;;;;25.90;12.55;;;;;;;7.37;100.00;98001.08;2237680;79;22085;-82
2022/01/03 16:42:45;;;;;;;15.15;7.67;;;;;;;7.25;100.00;98013.40;2188385;81;20950;-81
2022/01/03 16:45:46;;;;;;;10.90;6.08;;;;;;;7.35;100.00;98010.06;2188272;81;21017;-82
2022/01/03 16:48:47;;;;;;;14.13;8.03;;;;;;;7.42;100.00;98012.28;2188240;81;20977;-81
2022/01/03 16:51:48;;;;;;;14.13;8.13;;;;;;;7.53;100.00;97999.31;2188246;81;21109;-86
2022/01/03 16:54:49;;;;;;;21.23;9.45;;;;;;;7.58;100.00;98020.42;2188213;81;21029;-86
2022/01/03 16:57:50;;;;;;;10.72;6.17;;;;;;;7.56;100.00;98018.00;2188039;81;21009;-84
2022/01/03 17:00:51;;;;;;;26.65;14.47;;;;;;;7.62;100.00;98025.12;2188147;81;21045;-84
2022/01/03 17:03:52;;;;;;;12.68;6.53;;;;;;;7.72;100.00;98017.53;2188148;81;21001;-84
2022/01/03 17:06:52;;;;;;;6.03;3.80;;;;;;;7.79;100.00;98021.86;2188135;81;21525;-80
2022/01/03 17:09:53;;;;;;;8.33;2.98;;;;;;;7.80;100.00;98019.56;2188316;81;21029;-79
2022/01/03 17:12:57;;;;;;;22.13;9.55;;;;;;;7.72;100.00;98028.77;2188386;81;21004;-79
2022/01/03 17:15:58;;;;;;;8.55;5.00;;;;;;;7.75;100.00;98016.67;2146368;83;21120;-83
2022/01/03 17:18:59;;;;;;;12.58;5.08;;;;;;;7.92;100.00;98020.73;2146450;83;21007;-81
2022/01/03 17:22:00;;;;;;;5.20;3.45;;;;;;;7.96;100.00;98033.74;2146613;83;20977;-81
2022/01/03 17:25:00;;;;;;;8.88;4.05;;;;;;;7.98;100.00;98036.17;2146714;83;21001;-79
2022/01/03 17:28:01;;;;;;;6.53;3.40;;;;;;;7.88;100.00;98029.11;2146483;83;21301;-79
2022/01/03 17:31:02;;;;;;;8.25;3.22;;;;;;;7.96;100.00;98040.76;2146678;83;21471;-79
2022/01/03 17:34:03;;;;;;;7.30;4.12;;;;;;;7.94;100.00;98044.02;2146594;83;20997;-81
2022/01/03 17:37:04;;;;;;;6.83;2.30;;;;;;;7.89;100.00;98051.58;2146048;83;21023;-81
2022/01/03 17:40:05;;;;;;;4.95;3.08;;;;;;;7.83;100.00;98019.70;2136882;83;20938;-81
2022/01/03 17:43:06;;;;;;;3.75;1.72;;;;;;;7.87;100.00;98037.42;2136976;83;21044;-81
2022/01/03 17:46:06;;;;;;;7.65;2.50;;;;;;;7.89;100.00;98038.05;2136952;83;21021;-80
2022/01/03 17:49:07;;;;;;;2.45;1.95;;;;;;;7.88;100.00;98019.98;2136834;83;20988;-81
2022/01/03 17:52:08;;;;;;;3.62;2.50;;;;;;;7.79;100.00;98038.00;2136196;83;21028;-81
2022/01/03 17:55:09;;;;;;;7.20;2.58;;;;;;;7.70;100.00;98023.73;2136338;83;21468;-81
2022/01/03 17:58:10;;;;;;;7.05;2.98;;;;;;;7.72;100.00;98005.31;2136212;83;21076;-80
2022/01/03 18:01:11;;;;;;;7.40;2.70;;;;;;;7.68;100.00;98014.45;2136331;83;20988;-81
2022/01/03 18:04:12;;;;;;;8.80;3.02;;;;;;;7.54;100.00;98015.27;2136280;83;21036;-80
2022/01/03 18:07:14;;;;;;;6.53;2.90;;;;;;;7.39;100.00;98016.02;2136124;83;21468;-80
2022/01/03 18:10:15;;;;;;;13.30;5.60;;;;;;;7.32;100.00;98016.44;2136197;83;21016;-78
2022/01/03 18:13:17;;;;;;;9.95;3.37;;;;;;;7.27;100.00;98012.23;2136395;83;21483;-78
2022/01/03 18:16:18;;;;;;;17.15;7.15;;;;;;;7.19;100.00;98007.09;2136191;83;20977;-82
2022/01/03 18:19:19;;;;;;;26.00;11.43;;;;;;;7.12;100.00;98005.66;2136279;83;21210;-81
2022/01/03 18:22:20;;;;;;;17.67;8.05;;;;;;;7.05;100.00;98003.47;2181117;81;21032;-80
2022/01/03 18:25:21;;;;;;;12.33;5.60;;;;;;;6.96;100.00;98002.40;2136322;83;20953;-83
2022/01/03 18:28:23;;;;;;;5.17;2.77;;;;;;;6.88;100.00;97993.34;2136343;83;20985;-78
2022/01/03 18:31:24;;;;;;;7.10;3.08;;;;;;;6.82;100.00;97993.53;2136201;83;21048;-82
2022/01/03 18:34:25;;;;;;;5.95;3.10;;;;;;;6.79;100.00;97981.69;2136313;83;20997;-79
2022/01/03 18:37:26;;;;;;;6.75;3.85;;;;;;;6.77;100.00;97981.55;2135558;83;21338;-79
2022/01/03 18:40:27;;;;;;;4.20;2.98;;;;;;;6.73;100.00;97998.47;2126761;84;21033;-79
2022/01/03 18:43:28;;;;;;;12.75;5.58;;;;;;;6.69;100.00;98006.31;2126734;84;21012;-78
2022/01/03 18:46:29;;;;;;;9.60;4.80;;;;;;;6.66;100.00;97997.53;2126663;84;21050;-82
2022/01/03 18:49:30;;;;;;;9.38;4.12;;;;;;;6.55;100.00;97998.24;2126770;84;20977;-82
2022/01/03 18:52:32;;;;;;;11.00;3.25;;;;;;;6.55;100.00;97998.24;2126767;83;20978;-79
2022/01/03 18:55:33;;;;;;;6.70;3.08;;;;;;;6.52;100.00;97993.88;2126615;84;21481;-79
2022/01/03 18:58:33;;;;;;;6.67;3.60;;;;;;;6.49;100.00;97999.41;2126845;84;21342;-79
2022/01/03 19:01:34;;;;;;;6.62;3.83;;;;;;;6.46;100.00;98003.66;2126704;84;21074;-79
2022/01/03 19:04:35;;;;;;;7.92;4.67;;;;;;;6.45;100.00;98001.55;2126857;84;20992;-80
2022/01/03 19:07:36;;;;;;;10.05;5.28;;;;;;;6.42;100.00;97995.89;2126754;84;21016;-79
2022/01/03 19:10:37;;;;;;;7.03;4.92;;;;;;;6.40;100.00;97993.92;2126738;84;21005;-80
2022/01/03 19:13:38;;;;;;;15.83;6.28;;;;;;;6.37;100.00;97996.39;2126857;84;21016;-79
2022/01/03 19:16:39;;;;;;;9.65;5.75;;;;;;;6.36;100.00;97987.46;2126741;84;21016;-79
2022/01/03 19:19:41;;;;;;;8.78;5.95;;;;;;;6.33;100.00;97991.22;2126737;84;21535;-83
2022/01/03 19:22:42;;;;;;;18.17;7.60;;;;;;;6.30;100.00;97989.42;2126585;84;21122;-82
2022/01/03 19:25:43;;;;;;;9.28;6.97;;;;;;;6.29;100.00;97984.72;2126703;84;20970;-82
2022/01/03 19:28:44;;;;;;;13.43;7.40;;;;;;;6.32;100.00;97984.89;2126781;84;21008;-82
2022/01/03 19:31:46;;;;;;;17.27;9.85;;;;;;;6.32;100.00;97983.59;2126615;84;21002;-80
2022/01/03 19:38:06;;;;;;;15.48;8.93;;;;;;;6.30;100.00;97980.33;2126764;83;21512;-78
2022/01/03 19:41:07;;;;;;;15.75;8.40;;;;;;;6.28;100.00;97980.02;2126848;84;20977;-79
2022/01/03 19:44:08;;;;;;;14.80;9.30;;;;;;;6.32;100.00;97979.69;2126664;84;21060;-78
2022/01/03 19:47:10;;;;;;;15.05;8.28;;;;;;;6.32;100.00;97975.30;2126709;84;21020;-78
2022/01/03 19:50:11;;;;;;;13.43;8.20;;;;;;;6.30;100.00;97975.94;2126555;84;21051;-78
2022/01/03 19:53:12;;;;;;;18.90;8.83;;;;;;;6.32;100.00;97977.09;2126576;84;21013;-78
2022/01/03 19:56:13;;;;;;;15.95;8.08;;;;;;;6.30;100.00;97978.54;2126669;84;20962;-78
2022/01/03 19:59:14;;;;;;;14.13;8.75;;;;;;;6.30;100.00;97986.83;2126576;84;21263;-79
2022/01/03 20:02:15;;;;;;;22.65;9.50;;;;;;;6.29;100.00;97983.42;2126676;84;21097;-78
2022/01/03 20:05:16;;;;;;;18.20;8.40;;;;;;;6.30;100.00;97985.03;2126689;84;20980;-78
2022/01/03 20:08:17;;;;;;;12.18;7.83;;;;;;;6.29;100.00;97984.72;2126803;84;20993;-78
2022/01/03 20:11:17;;;;;;;13.58;7.37;;;;;;;6.28;100.00;97985.21;2126640;84;21004;-79
2022/01/03 20:14:18;;;;;;;20.20;7.78;;;;;;;6.27;100.00;97984.09;2126662;84;21112;-78
2022/01/03 20:17:19;;;;;;;18.02;8.75;;;;;;;6.24;100.00;97982.64;2126535;84;21037;-79
2022/01/03 20:20:20;;;;;;;16.65;8.33;;;;;;;6.21;100.00;97986.86;2126585;84;21048;-79
2022/01/03 20:23:21;;;;;;;21.55;9.78;;;;;;;6.19;100.00;97978.43;2126626;84;21110;-78
2022/01/03 20:26:22;;;;;;;12.70;6.80;;;;;;;6.16;100.00;97982.67;2126669;84;21048;-78
2022/01/03 20:29:23;;;;;;;14.15;7.72;;;;;;;6.10;100.00;97978.64;2126670;84;20988;-78
2022/01/03 20:32:24;;;;;;;15.15;8.08;;;;;;;6.04;100.00;97978.84;2126658;84;21041;-79
2022/01/03 20:35:25;;;;;;;15.53;7.17;;;;;;;5.98;100.00;97980.31;2126618;84;20997;-78
2022/01/03 20:38:26;;;;;;;18.42;7.47;;;;;;;5.92;100.00;97969.77;2128611;83;21583;-78
2022/01/03 20:41:26;;;;;;;13.40;7.83;;;;;;;5.85;100.00;97967.48;2136152;83;20969;-78
2022/01/03 20:44:27;;;;;;;10.93;6.20;;;;;;;5.78;100.00;97963.95;2136149;83;20949;-78
2022/01/03 20:47:28;;;;;;;10.72;6.87;;;;;;;5.70;100.00;97964.78;2136110;83;21057;-78
2022/01/03 20:50:29;;;;;;;24.18;13.08;;;;;;;5.62;100.00;97958.30;2136039;83;21031;-78
2022/01/03 20:53:31;;;;;;;16.82;9.13;;;;;;;5.54;100.00;97950.05;2180913;82;21136;-77
2022/01/03 20:56:32;;;;;;;13.55;7.28;;;;;;;5.51;100.00;97954.77;2136150;83;21036;-78
2022/01/03 20:59:32;;;;;;;9.85;5.62;;;;;;;5.45;100.00;97950.22;2136004;83;21496;-78
2022/01/03 21:02:33;;;;;;;14.30;6.50;;;;;;;5.40;100.00;97957.23;2136042;83;20968;-78
2022/01/03 21:05:34;;;;;;;18.40;7.72;;;;;;;5.32;100.00;97955.94;2136166;83;21016;-78
2022/01/03 21:08:39;;;;;;;18.30;8.05;;;;;;;5.25;100.00;97945.88;2136045;83;20949;-78
2022/01/03 21:11:38;;;;;;;15.95;7.78;;;;;;;5.21;100.00;97949.77;2135257;83;21084;-79
2022/01/03 21:14:38;;;;;;;17.65;8.88;;;;;;;5.18;100.00;97945.72;2136226;83;21539;-82
2022/01/03 21:17:39;;;;;;;17.37;7.65;;;;;;;5.17;100.00;97940.70;2136120;83;21021;-81
2022/01/03 21:20:40;;;;;;;16.42;8.45;;;;;;;5.20;100.00;97941.66;2136136;83;21048;-80
2022/01/03 21:23:41;;;;;;;15.03;7.08;;;;;;;5.22;100.00;97935.84;2136240;83;21038;-78
2022/01/03 21:26:42;;;;;;;20.92;8.88;;;;;;;5.25;100.00;97938.09;2136209;83;21065;-77
2022/01/03 21:29:43;;;;;;;14.87;8.23;;;;;;;5.28;100.00;97942.95;2136203;83;20962;-77
2022/01/03 21:32:44;;;;;;;16.50;6.40;;;;;;;5.35;100.00;97942.13;2136532;83;21063;-77
2022/01/03 21:35:46;;;;;;;10.28;5.80;;;;;;;5.42;100.00;97944.39;2136546;83;20942;-77
2022/01/03 21:38:47;;;;;;;11.40;5.58;;;;;;;5.51;100.00;97937.89;2134033;83;21025;-77
2022/01/03 21:41:48;;;;;;;12.88;6.17;;;;;;;5.54;100.00;97942.25;2127228;84;21016;-77
2022/01/03 21:44:49;;;;;;;13.68;6.58;;;;;;;5.60;100.00;97939.00;2126661;84;21061;-78
2022/01/03 21:47:51;;;;;;;13.95;6.47;;;;;;;5.64;100.00;97935.08;2126635;84;21068;-78
2022/01/03 21:50:52;;;;;;;16.85;6.70;;;;;;;5.69;100.00;97930.70;2126652;84;21092;-78
2022/01/03 21:53:54;;;;;;;13.40;7.17;;;;;;;5.70;100.00;97923.22;2126665;84;20981;-77
2022/01/03 21:56:55;;;;;;;13.50;7.60;;;;;;;5.66;100.00;97918.02;2126614;84;21038;-77
2022/01/03 21:59:56;;;;;;;17.05;7.60;;;;;;;5.67;100.00;97923.56;2126747;84;21052;-76
2022/01/03 22:02:57;;;;;;;15.88;7.58;;;;;;;5.66;100.00;97929.22;2126596;84;20970;-77
2022/01/03 22:05:57;;;;;;;20.23;7.92;;;;;;;5.68;100.00;97927.29;2126682;83;21084;-77
2022/01/03 22:08:58;;;;;;;18.27;7.85;;;;;;;5.71;100.00;97927.44;2126742;84;21036;-77
2022/01/03 22:11:59;;;;;;;22.65;7.78;;;;;;;5.74;100.00;97919.30;2126885;84;20977;-77
2022/01/03 22:15:00;;;;;;;18.82;8.10;;;;;;;5.76;100.00;97916.06;2126756;84;21048;-77
2022/01/03 22:18:01;;;;;;;15.95;7.95;;;;;;;5.78;100.00;97911.50;2126736;84;21008;-78
2022/01/03 22:21:02;;;;;;;13.13;6.62;;;;;;;5.83;100.00;97906.59;2126650;84;21044;-78
2022/01/03 22:24:03;;;;;;;13.22;6.35;;;;;;;5.85;100.00;97904.66;2126834;84;20958;-78
2022/01/03 22:27:03;;;;;;;13.62;7.08;;;;;;;5.84;100.00;97903.51;2126736;84;21040;-78
2022/01/03 22:30:04;;;;;;;12.37;7.17;;;;;;;5.82;100.00;97915.38;2126712;84;20954;-78
2022/01/03 22:33:06;;;;;;;13.18;7.37;;;;;;;5.79;100.00;97905.82;2126770;84;20989;-78
2022/01/03 22:36:07;;;;;;;14.28;8.28;;;;;;;5.77;100.00;97902.59;2126638;84;21045;-77
2022/01/03 22:39:08;;;;;;;17.60;8.18;;;;;;;5.76;100.00;97897.05;2129305;83;21040;-77
2022/01/03 22:42:09;;;;;;;13.90;6.55;;;;;;;5.78;100.00;97906.31;2136210;83;21024;-77
2022/01/03 22:45:10;;;;;;;15.63;7.45;;;;;;;5.81;100.00;97904.66;2136263;83;21502;-77
2022/01/03 22:48:11;;;;;;;15.98;7.58;;;;;;;5.82;100.00;97898.48;2136389;83;21008;-78
2022/01/03 22:51:12;;;;;;;20.70;8.73;;;;;;;5.85;100.00;97904.66;2136129;83;20969;-78
2022/01/03 22:54:12;;;;;;;23.15;9.55;;;;;;;5.88;100.00;97892.63;2136221;83;20993;-78
2022/01/03 22:57:13;;;;;;;20.90;8.90;;;;;;;5.89;100.00;97889.05;2136325;83;20996;-78
2022/01/03 23:00:14;;;;;;;18.48;9.05;;;;;;;5.95;100.00;97883.70;2136111;83;20973;-78
2022/01/03 23:03:15;;;;;;;21.60;10.20;;;;;;;5.98;100.00;97879.45;2136259;83;20992;-78
2022/01/03 23:06:19;;;;;;;18.87;9.75;;;;;;;5.99;100.00;97886.27;2181145;81;21044;-78
2022/01/03 23:09:18;;;;;;;23.15;11.33;;;;;;;5.99;100.00;97887.08;2135946;83;21069;-78
2022/01/03 23:12:19;;;;;;;21.85;12.43;;;;;;;5.97;100.00;97882.55;2181251;81;20934;-78
2022/01/03 23:15:20;;;;;;;21.17;10.90;;;;;;;5.95;100.00;97872.81;2181754;82;21460;-78
2022/01/03 23:18:20;;;;;;;23.70;11.22;;;;;;;5.95;100.00;97870.70;2181102;82;21415;-78
2022/01/03 23:21:21;;;;;;;31.65;12.18;;;;;;;5.93;100.00;97876.05;2181198;82;22069;-78
2022/01/03 23:24:22;;;;;;;25.57;12.35;;;;;;;5.96;100.00;97884.83;2181095;82;21024;-77
2022/01/03 23:27:23;;;;;;;19.92;10.53;;;;;;;5.97;100.00;97870.04;2181213;81;21477;-78
2022/01/03 23:30:24;;;;;;;17.77;10.10;;;;;;;5.98;100.00;97862.56;2181338;82;21064;-78
2022/01/03 23:33:24;;;;;;;21.80;10.53;;;;;;;5.98;100.00;97868.56;2180963;82;20998;-78
2022/01/03 23:36:25;;;;;;;17.73;9.85;;;;;;;5.99;100.00;97864.98;2181094;82;20958;-78
2022/01/03 23:39:26;;;;;;;20.82;10.32;;;;;;;5.98;100.00;97862.07;2182684;81;21030;-78
2022/01/03 23:42:27;;;;;;;18.82;9.70;;;;;;;5.99;100.00;97853.78;2187430;81;20946;-78
2022/01/03 23:45:27;;;;;;;15.48;8.73;;;;;;;6.01;100.00;97843.21;2187746;81;21037;-77
2022/01/03 23:48:29;;;;;;;16.17;8.95;;;;;;;6.02;100.00;97846.13;2187623;81;20997;-77
2022/01/03 23:51:30;;;;;;;18.00;9.05;;;;;;;6.03;100.00;97840.75;2187771;81;21100;-77
2022/01/03 23:54:31;;;;;;;22.13;9.43;;;;;;;6.05;100.00;97844.02;2187863;81;20977;-77
2022/01/03 23:57:32;;;;;;;17.23;7.55;;;;;;;6.04;100.00;97835.90;2187731;81;21140;-77
